Time;durP1;ratioP1;P1;durP2;ratioP2;P2;SDS_P1;SDS_P2;PMS_P1;PMS_P2;Temp;Humidity;BMP_temperature;BMP_pressure;BME280_temperature;BME280_humidity;BME280_pressure;Samples;Min_cycle;Max_cycle;Signal;HPM_P1;HPM_P2
2023/12/22 00:01:41;;;;;;;17.15;2.83;;;;;;;;;;5076124;28;20052;-74
2023/12/22 00:04:11;;;;;;;22.83;3.65;;;;;;;;;;5072774;28;20079;-74
2023/12/22 00:06:37;;;;;;;16.05;3.10;;;;;;;;;;5085222;28;20038;-74
2023/12/22 00:09:03;;;;;;;24.08;3.53;;;;;;;;;;5074356;28;20045;-74
2023/12/22 00:11:29;;;;;;;22.95;3.50;;;;;;;;;;5074219;28;20041;-74
2023/12/22 00:13:55;;;;;;;25.58;3.60;;;;;;;;;;5078955;28;20577;-74
2023/12/22 00:16:21;;;;;;;19.95;3.17;;;;;;;;;;5080465;28;20395;-74
2023/12/22 00:18:47;;;;;;;24.92;4.03;;;;;;;;;;5074075;28;20490;-74
2023/12/22 00:21:13;;;;;;;26.50;4.20;;;;;;;;;;5085490;28;20058;-74
2023/12/22 00:23:39;;;;;;;25.73;4.90;;;;;;;;;;5081944;28;20090;-74
2023/12/22 00:26:06;;;;;;;26.73;4.55;;;;;;;;;;5092241;28;20093;-74
2023/12/22 00:28:32;;;;;;;25.55;3.75;;;;;;;;;;5087926;28;20051;-74
2023/12/22 00:30:58;;;;;;;24.50;3.60;;;;;;;;;;5083312;28;20094;-74
2023/12/22 00:33:25;;;;;;;24.80;3.80;;;;;;;;;;5086619;28;20040;-74
2023/12/22 00:35:52;;;;;;;21.65;3.33;;;;;;;;;;5089426;28;20100;-74
2023/12/22 00:38:18;;;;;;;32.42;3.97;;;;;;;;;;5086951;28;20090;-74
2023/12/22 00:40:44;;;;;;;21.40;4.15;;;;;;;;;;5072968;28;20497;-74
2023/12/22 00:43:10;;;;;;;22.17;3.75;;;;;;;;;;5073582;28;20049;-74
2023/12/22 00:45:36;;;;;;;23.63;4.00;;;;;;;;;;5080007;28;20048;-74
2023/12/22 00:48:02;;;;;;;25.80;3.72;;;;;;;;;;5083098;28;20048;-74
2023/12/22 00:50:28;;;;;;;18.60;2.85;;;;;;;;;;5080781;28;20079;-74
2023/12/22 00:52:54;;;;;;;20.38;2.85;;;;;;;;;;5091163;28;20055;-74
2023/12/22 00:55:20;;;;;;;18.58;3.10;;;;;;;;;;5090781;28;20048;-74
2023/12/22 00:57:46;;;;;;;25.02;3.65;;;;;;;;;;5092678;28;20508;-74
2023/12/22 01:00:13;;;;;;;19.80;2.75;;;;;;;;;;5075353;28;20382;-74
2023/12/22 01:02:39;;;;;;;23.83;3.25;;;;;;;;;;5055653;28;20044;-74
2023/12/22 01:05:05;;;;;;;19.35;3.30;;;;;;;;;;5073224;28;20059;-74
2023/12/22 01:07:31;;;;;;;18.80;3.45;;;;;;;;;;5075352;28;20508;-74
2023/12/22 01:10:01;;;;;;;19.00;3.15;;;;;;;;;;5055149;28;20474;-74
2023/12/22 01:12:31;;;;;;;23.48;4.18;;;;;;;;;;5073171;28;20039;-74
2023/12/22 01:14:57;;;;;;;19.55;3.10;;;;;;;;;;5081790;28;20056;-74
2023/12/22 01:17:23;;;;;;;22.70;3.60;;;;;;;;;;5092725;28;20086;-74
2023/12/22 01:19:51;;;;;;;18.90;3.20;;;;;;;;;;5044518;28;20076;-74
2023/12/22 01:22:17;;;;;;;19.85;3.10;;;;;;;;;;5073057;28;20415;-74
2023/12/22 01:24:45;;;;;;;22.00;3.40;;;;;;;;;;5079090;28;20044;-74
2023/12/22 01:27:11;;;;;;;15.77;2.53;;;;;;;;;;5049727;28;20086;-74
2023/12/22 01:29:37;;;;;;;19.77;3.22;;;;;;;;;;5083731;28;20044;-74
2023/12/22 01:32:04;;;;;;;21.42;3.47;;;;;;;;;;5077920;28;20039;-74
2023/12/22 01:34:30;;;;;;;23.88;3.42;;;;;;;;;;5092226;28;20499;-74
2023/12/22 01:36:56;;;;;;;28.05;4.25;;;;;;;;;;5086400;28;20041;-74
2023/12/22 01:39:22;;;;;;;29.90;4.50;;;;;;;;;;5076781;28;20089;-74
2023/12/22 01:41:48;;;;;;;29.00;4.78;;;;;;;;;;5086097;28;20489;-74
2023/12/22 01:44:14;;;;;;;36.92;5.13;;;;;;;;;;5089038;28;20055;-74
2023/12/22 01:46:40;;;;;;;26.55;4.40;;;;;;;;;;5087596;28;20036;-74
2023/12/22 01:49:07;;;;;;;23.65;3.95;;;;;;;;;;5092114;28;20506;-74
2023/12/22 01:51:35;;;;;;;26.92;4.43;;;;;;;;;;5083360;28;20379;-74
2023/12/22 01:54:01;;;;;;;29.83;4.90;;;;;;;;;;5085367;28;20044;-73
2023/12/22 01:56:27;;;;;;;24.83;3.35;;;;;;;;;;5082165;28;20383;-74
2023/12/22 01:58:56;;;;;;;27.13;3.85;;;;;;;;;;5077109;28;20097;-74
2023/12/22 02:01:23;;;;;;;24.00;4.68;;;;;;;;;;5086016;28;20051;-74
2023/12/22 02:03:53;;;;;;;24.95;3.78;;;;;;;;;;5058626;28;20426;-74
2023/12/22 02:06:19;;;;;;;24.67;3.95;;;;;;;;;;5077252;28;20397;-74
2023/12/22 02:08:47;;;;;;;26.23;3.70;;;;;;;;;;5080452;28;20055;-74
2023/12/22 02:11:14;;;;;;;22.80;4.03;;;;;;;;;;5093399;28;20490;-74
2023/12/22 02:13:40;;;;;;;20.42;3.40;;;;;;;;;;5076801;28;20040;-74
2023/12/22 02:16:13;;;;;;;21.30;3.13;;;;;;;;;;5041535;28;20494;-74
2023/12/22 02:18:40;;;;;;;24.35;4.03;;;;;;;;;;5078978;28;20086;-74
2023/12/22 02:21:06;;;;;;;26.58;3.70;;;;;;;;;;5081826;28;20044;-74
2023/12/22 02:23:32;;;;;;;28.85;4.80;;;;;;;;;;5094888;28;20093;-74
2023/12/22 02:26:04;;;;;;;28.42;3.88;;;;;;;;;;5082646;28;20041;-74
2023/12/22 02:28:30;;;;;;;24.38;4.25;;;;;;;;;;5077497;28;20048;-74
2023/12/22 02:31:05;;;;;;;26.92;4.60;;;;;;;;;;5096070;28;20040;-74
2023/12/22 02:33:32;;;;;;;19.08;3.90;;;;;;;;;;5086574;28;20124;-74
2023/12/22 02:36:01;;;;;;;24.50;3.85;;;;;;;;;;5087614;28;20067;-74
2023/12/22 02:38:27;;;;;;;18.52;3.53;;;;;;;;;;5076546;28;20044;-74
2023/12/22 02:40:53;;;;;;;30.58;4.03;;;;;;;;;;5094567;28;20044;-74
2023/12/22 02:43:19;;;;;;;25.90;3.75;;;;;;;;;;5095399;28;20420;-74
2023/12/22 02:45:45;;;;;;;24.10;3.85;;;;;;;;;;5093658;28;20130;-74
2023/12/22 02:48:11;;;;;;;25.35;3.58;;;;;;;;;;5095604;28;20187;-74
2023/12/22 02:50:37;;;;;;;32.33;4.70;;;;;;;;;;5092992;28;20044;-74
2023/12/22 02:53:03;;;;;;;22.63;3.63;;;;;;;;;;5095075;28;20036;-74
2023/12/22 02:55:29;;;;;;;26.63;3.75;;;;;;;;;;5095360;28;20499;-74
2023/12/22 02:57:55;;;;;;;24.02;3.95;;;;;;;;;;5086030;28;20489;-74
2023/12/22 03:00:21;;;;;;;30.48;4.10;;;;;;;;;;5091735;28;20108;-74
2023/12/22 03:02:47;;;;;;;21.95;3.42;;;;;;;;;;5085512;28;20044;-74
2023/12/22 03:05:13;;;;;;;24.42;3.72;;;;;;;;;;5073687;28;20117;-74
2023/12/22 03:07:39;;;;;;;23.13;3.28;;;;;;;;;;5095246;28;20493;-74
2023/12/22 03:10:06;;;;;;;21.38;3.70;;;;;;;;;;5082903;28;20508;-74
2023/12/22 03:12:32;;;;;;;27.13;4.10;;;;;;;;;;5094282;28;20382;-74
2023/12/22 03:14:58;;;;;;;24.92;4.03;;;;;;;;;;5093504;28;20060;-74
2023/12/22 03:17:24;;;;;;;23.63;3.63;;;;;;;;;;5088689;28;20044;-74
2023/12/22 03:19:50;;;;;;;13.35;2.28;;;;;;;;;;5082372;28;20052;-74
2023/12/22 03:22:16;;;;;;;15.43;2.42;;;;;;;;;;5078408;28;20032;-74
2023/12/22 03:24:42;;;;;;;18.50;3.55;;;;;;;;;;5095483;28;20036;-74
2023/12/22 03:27:08;;;;;;;23.67;3.40;;;;;;;;;;5085770;28;20048;-74
2023/12/22 03:29:34;;;;;;;18.45;2.70;;;;;;;;;;5089230;28;20115;-74
2023/12/22 03:32:00;;;;;;;20.05;2.85;;;;;;;;;;5091904;28;20040;-74
2023/12/22 03:34:26;;;;;;;18.42;2.50;;;;;;;;;;5075203;28;20064;-74
2023/12/22 03:36:52;;;;;;;15.50;3.17;;;;;;;;;;5075087;28;20037;-74
2023/12/22 03:39:18;;;;;;;21.10;3.53;;;;;;;;;;5090703;28;20044;-74
2023/12/22 03:41:44;;;;;;;20.45;2.78;;;;;;;;;;5077667;28;20044;-74
2023/12/22 03:44:11;;;;;;;21.50;3.30;;;;;;;;;;5094392;28;20044;-74
2023/12/22 03:46:37;;;;;;;22.63;3.67;;;;;;;;;;5094310;28;20040;-74
2023/12/22 03:49:03;;;;;;;20.08;3.47;;;;;;;;;;5082356;28;20139;-74
2023/12/22 03:51:29;;;;;;;19.50;3.00;;;;;;;;;;5074359;28;20047;-74
2023/12/22 03:53:55;;;;;;;23.45;3.30;;;;;;;;;;5077242;28;20040;-74
2023/12/22 03:56:21;;;;;;;17.33;2.95;;;;;;;;;;5074648;28;20091;-74
2023/12/22 03:58:47;;;;;;;18.17;2.42;;;;;;;;;;5085973;28;20056;-74
2023/12/22 04:01:16;;;;;;;21.00;2.60;;;;;;;;;;5074324;28;20537;-74
2023/12/22 04:03:42;;;;;;;21.90;3.15;;;;;;;;;;5087376;28;20047;-74
2023/12/22 04:06:09;;;;;;;19.80;3.20;;;;;;;;;;5074468;28;20047;-74
2023/12/22 04:08:35;;;;;;;17.60;3.15;;;;;;;;;;5087785;28;20048;-74
2023/12/22 04:11:01;;;;;;;26.90;3.22;;;;;;;;;;5091552;28;20069;-74
2023/12/22 04:13:27;;;;;;;16.88;2.60;;;;;;;;;;5091050;28;20051;-74
2023/12/22 04:15:53;;;;;;;19.85;3.20;;;;;;;;;;5076360;28;20053;-74
2023/12/22 04:18:19;;;;;;;21.05;3.08;;;;;;;;;;5093922;28;20055;-74
2023/12/22 04:20:45;;;;;;;18.83;2.80;;;;;;;;;;5060508;28;20056;-74
2023/12/22 04:23:11;;;;;;;25.05;4.03;;;;;;;;;;5053812;28;20054;-74
2023/12/22 04:25:37;;;;;;;19.15;3.08;;;;;;;;;;5058654;28;20040;-74
2023/12/22 04:28:03;;;;;;;23.20;3.65;;;;;;;;;;5054545;28;20498;-74
2023/12/22 04:30:29;;;;;;;24.08;3.75;;;;;;;;;;5092681;28;21340;-74
2023/12/22 04:32:56;;;;;;;22.15;3.45;;;;;;;;;;5088013;28;20040;-74
2023/12/22 04:35:22;;;;;;;27.10;4.20;;;;;;;;;;5052225;28;20094;-74
2023/12/22 04:37:48;;;;;;;25.88;4.22;;;;;;;;;;5081166;28;20481;-74
2023/12/22 04:40:14;;;;;;;24.95;3.47;;;;;;;;;;5079954;28;20071;-74
2023/12/22 04:42:40;;;;;;;25.73;3.97;;;;;;;;;;5073609;28;20109;-74
2023/12/22 04:45:06;;;;;;;22.33;3.45;;;;;;;;;;5092242;28;20048;-74
2023/12/22 04:47:32;;;;;;;20.60;4.07;;;;;;;;;;5091791;28;20040;-74
2023/12/22 04:49:58;;;;;;;23.13;3.53;;;;;;;;;;5086375;28;20089;-74
2023/12/22 04:52:24;;;;;;;28.60;4.30;;;;;;;;;;5084098;28;20051;-74
2023/12/22 04:54:50;;;;;;;26.33;4.10;;;;;;;;;;5091506;28;20043;-74
2023/12/22 04:57:16;;;;;;;23.23;3.78;;;;;;;;;;5081031;28;20036;-74
2023/12/22 04:59:42;;;;;;;26.02;3.78;;;;;;;;;;5091527;28;20134;-74
2023/12/22 05:02:08;;;;;;;22.08;4.38;;;;;;;;;;5085478;28;20397;-74
2023/12/22 05:04:34;;;;;;;25.27;4.20;;;;;;;;;;5081140;28;20494;-74
2023/12/22 05:07:01;;;;;;;28.80;4.78;;;;;;;;;;5085433;28;20481;-74
2023/12/22 05:09:28;;;;;;;29.33;4.10;;;;;;;;;;5082564;28;20044;-74
2023/12/22 05:11:54;;;;;;;28.35;4.82;;;;;;;;;;5092378;28;20047;-74
2023/12/22 05:14:20;;;;;;;30.08;4.55;;;;;;;;;;5093019;28;20089;-74
2023/12/22 05:16:47;;;;;;;25.45;4.47;;;;;;;;;;5073171;28;20048;-74
2023/12/22 05:19:13;;;;;;;22.85;4.10;;;;;;;;;;5081161;28;20051;-74
2023/12/22 05:21:39;;;;;;;21.98;3.78;;;;;;;;;;5083218;28;20050;-74
2023/12/22 05:24:05;;;;;;;21.63;3.60;;;;;;;;;;5055011;28;20048;-74
2023/12/22 05:26:31;;;;;;;26.15;4.10;;;;;;;;;;5073118;28;20040;-74
2023/12/22 05:28:58;;;;;;;27.60;3.65;;;;;;;;;;5073495;28;20509;-74
2023/12/22 05:31:24;;;;;;;21.00;4.18;;;;;;;;;;5092305;28;20413;-74
2023/12/22 05:33:50;;;;;;;27.88;4.40;;;;;;;;;;5075239;28;20047;-73
2023/12/22 05:36:16;;;;;;;24.63;3.92;;;;;;;;;;5072219;28;20056;-74
2023/12/22 05:38:42;;;;;;;27.42;4.38;;;;;;;;;;5075203;28;20039;-74
2023/12/22 05:41:08;;;;;;;20.58;3.78;;;;;;;;;;5077484;28;20051;-74
2023/12/22 05:43:34;;;;;;;22.08;3.53;;;;;;;;;;5089928;28;20040;-73
2023/12/22 05:46:00;;;;;;;23.23;3.78;;;;;;;;;;5080292;28;20036;-74
2023/12/22 05:48:30;;;;;;;25.80;3.92;;;;;;;;;;5072622;28;20452;-74
2023/12/22 05:50:59;;;;;;;29.70;4.20;;;;;;;;;;5074986;28;20656;-74
2023/12/22 05:53:25;;;;;;;25.35;3.85;;;;;;;;;;5087665;28;20585;-74
2023/12/22 05:55:51;;;;;;;25.33;3.45;;;;;;;;;;5055799;28;20044;-74
2023/12/22 05:58:17;;;;;;;23.23;3.88;;;;;;;;;;5075869;28;20051;-74
2023/12/22 06:00:43;;;;;;;25.27;3.95;;;;;;;;;;5086265;28;20040;-74
2023/12/22 06:03:09;;;;;;;24.00;4.50;;;;;;;;;;5081400;28;20052;-74
2023/12/22 06:05:35;;;;;;;20.45;3.88;;;;;;;;;;5073369;28;20162;-74
2023/12/22 06:08:01;;;;;;;24.65;3.55;;;;;;;;;;5091540;28;20047;-74
2023/12/22 06:10:27;;;;;;;27.77;4.13;;;;;;;;;;5090033;28;20044;-74
2023/12/22 06:12:53;;;;;;;18.73;3.72;;;;;;;;;;5070661;28;20451;-74
2023/12/22 06:15:20;;;;;;;22.70;4.05;;;;;;;;;;5081497;28;20060;-74
2023/12/22 06:17:46;;;;;;;22.80;4.20;;;;;;;;;;5079678;28;20494;-74
2023/12/22 06:20:12;;;;;;;23.92;4.13;;;;;;;;;;5091623;28;20040;-74
2023/12/22 06:22:38;;;;;;;23.63;4.20;;;;;;;;;;5082079;28;20093;-74
2023/12/22 06:25:07;;;;;;;20.92;3.85;;;;;;;;;;5076165;28;20068;-74
2023/12/22 06:27:33;;;;;;;25.55;4.30;;;;;;;;;;5073586;28;20040;-74
2023/12/22 06:29:59;;;;;;;27.92;4.75;;;;;;;;;;5062374;28;21715;-74
2023/12/22 06:32:25;;;;;;;29.00;3.78;;;;;;;;;;5078923;28;20494;-74
2023/12/22 06:34:51;;;;;;;21.77;3.72;;;;;;;;;;5079549;28;20406;-74
2023/12/22 06:37:17;;;;;;;22.10;4.00;;;;;;;;;;5083347;28;20443;-74
2023/12/22 06:39:43;;;;;;;22.90;3.90;;;;;;;;;;5075387;28;20063;-74
2023/12/22 06:42:13;;;;;;;28.50;4.38;;;;;;;;;;5081536;28;20040;-74
2023/12/22 06:44:43;;;;;;;23.40;3.72;;;;;;;;;;5079269;28;20540;-74
2023/12/22 06:47:09;;;;;;;26.77;3.90;;;;;;;;;;5084424;28;20181;-74
2023/12/22 06:49:35;;;;;;;23.17;3.47;;;;;;;;;;5067053;28;20063;-74
2023/12/22 06:52:01;;;;;;;21.05;3.78;;;;;;;;;;5083840;28;20052;-74
2023/12/22 06:54:29;;;;;;;19.40;3.33;;;;;;;;;;5085406;28;20032;-74
2023/12/22 06:56:55;;;;;;;19.88;3.63;;;;;;;;;;5080059;28;20040;-74
2023/12/22 06:59:21;;;;;;;25.35;3.53;;;;;;;;;;5091564;28;20086;-74
2023/12/22 07:01:47;;;;;;;21.02;3.25;;;;;;;;;;5087670;28;20072;-74
2023/12/22 07:04:13;;;;;;;22.23;3.85;;;;;;;;;;5089115;28;20048;-74
2023/12/22 07:06:40;;;;;;;25.08;3.53;;;;;;;;;;5081205;28;20036;-74
2023/12/22 07:09:12;;;;;;;27.55;3.75;;;;;;;;;;5057515;28;20048;-74
2023/12/22 07:11:42;;;;;;;20.02;3.47;;;;;;;;;;5088888;28;20048;-74
2023/12/22 07:14:08;;;;;;;21.40;3.22;;;;;;;;;;5084756;28;20517;-74
2023/12/22 07:16:35;;;;;;;18.60;3.10;;;;;;;;;;5086930;28;20060;-74
2023/12/22 07:19:01;;;;;;;24.00;3.53;;;;;;;;;;5087555;28;20049;-74
2023/12/22 07:21:27;;;;;;;21.60;3.35;;;;;;;;;;5084580;28;20052;-74
2023/12/22 07:23:53;;;;;;;27.70;3.40;;;;;;;;;;5087421;28;20502;-74
2023/12/22 07:26:21;;;;;;;15.60;2.72;;;;;;;;;;5083204;28;20390;-74
2023/12/22 07:28:47;;;;;;;22.25;3.30;;;;;;;;;;5085688;28;20044;-74
2023/12/22 07:31:14;;;;;;;18.10;3.15;;;;;;;;;;5094347;28;20482;-74
2023/12/22 07:33:42;;;;;;;21.00;3.50;;;;;;;;;;5092984;28;20055;-74
2023/12/22 07:36:08;;;;;;;22.55;3.58;;;;;;;;;;5079532;28;20032;-74
2023/12/22 07:38:34;;;;;;;22.15;2.95;;;;;;;;;;5081871;28;20044;-74
2023/12/22 07:41:00;;;;;;;19.45;3.97;;;;;;;;;;5081409;28;20497;-74
2023/12/22 07:43:29;;;;;;;21.65;3.22;;;;;;;;;;5087315;28;20044;-74
2023/12/22 07:45:55;;;;;;;15.82;2.88;;;;;;;;;;5087887;28;20044;-74
2023/12/22 07:48:21;;;;;;;20.65;3.20;;;;;;;;;;5088502;28;20037;-74
2023/12/22 07:50:47;;;;;;;16.17;2.72;;;;;;;;;;5087354;28;20055;-74
2023/12/22 07:53:13;;;;;;;23.27;3.33;;;;;;;;;;5093981;28;20059;-74
2023/12/22 07:55:40;;;;;;;23.15;3.03;;;;;;;;;;5075346;28;20524;-74
2023/12/22 07:58:07;;;;;;;20.55;2.95;;;;;;;;;;5074704;28;20044;-74
2023/12/22 08:00:33;;;;;;;23.83;3.80;;;;;;;;;;5093581;28;20480;-74
2023/12/22 08:03:00;;;;;;;21.52;3.60;;;;;;;;;;5094138;28;20104;-74
2023/12/22 08:05:26;;;;;;;19.50;3.10;;;;;;;;;;5094434;28;20118;-74
2023/12/22 08:07:52;;;;;;;24.40;3.50;;;;;;;;;;5093656;28;20471;-74
2023/12/22 08:10:19;;;;;;;24.35;3.60;;;;;;;;;;5093754;28;20044;-74
2023/12/22 08:12:45;;;;;;;22.48;3.53;;;;;;;;;;5073885;28;20121;-74
2023/12/22 08:15:11;;;;;;;19.15;3.10;;;;;;;;;;5081091;28;20052;-74
2023/12/22 08:17:38;;;;;;;21.35;3.63;;;;;;;;;;5073679;28;20075;-74
2023/12/22 08:20:08;;;;;;;19.00;2.95;;;;;;;;;;5083662;28;20058;-74
2023/12/22 08:22:34;;;;;;;22.73;3.40;;;;;;;;;;5082539;28;20049;-74
2023/12/22 08:25:00;;;;;;;22.60;3.17;;;;;;;;;;5062289;28;20056;-74
2023/12/22 08:27:26;;;;;;;22.10;3.17;;;;;;;;;;5089461;28;20044;-74
2023/12/22 08:29:52;;;;;;;26.95;3.40;;;;;;;;;;5086109;28;20036;-74
2023/12/22 08:32:19;;;;;;;19.42;3.72;;;;;;;;;;5087564;28;20051;-74
2023/12/22 08:34:45;;;;;;;23.10;3.35;;;;;;;;;;5083935;28;20059;-74
2023/12/22 08:37:11;;;;;;;21.38;3.15;;;;;;;;;;5093138;28;20048;-73
2023/12/22 08:39:38;;;;;;;22.15;3.33;;;;;;;;;;5092801;28;20488;-73
2023/12/22 08:42:04;;;;;;;26.65;3.90;;;;;;;;;;5071541;28;20048;-74
2023/12/22 08:44:30;;;;;;;20.10;3.25;;;;;;;;;;5080860;28;20040;-73
2023/12/22 08:46:56;;;;;;;22.55;3.47;;;;;;;;;;5083689;28;20396;-74
2023/12/22 08:49:22;;;;;;;20.48;2.97;;;;;;;;;;5067205;28;20040;-74
2023/12/22 08:51:48;;;;;;;15.55;2.85;;;;;;;;;;5092241;28;20050;-74
2023/12/22 08:54:15;;;;;;;19.75;3.17;;;;;;;;;;5090868;28;20511;-74
2023/12/22 08:56:41;;;;;;;16.88;2.42;;;;;;;;;;5069315;28;20458;-74
2023/12/22 08:59:08;;;;;;;20.33;2.95;;;;;;;;;;5082602;28;20039;-74
2023/12/22 09:01:35;;;;;;;27.92;3.90;;;;;;;;;;5081870;28;20063;-74
2023/12/22 09:04:01;;;;;;;19.70;3.63;;;;;;;;;;5080665;28;20051;-74
2023/12/22 09:06:27;;;;;;;16.23;2.97;;;;;;;;;;5088407;28;20048;-74
2023/12/22 09:08:53;;;;;;;19.10;3.15;;;;;;;;;;5079585;28;20093;-74
2023/12/22 09:11:21;;;;;;;17.00;2.65;;;;;;;;;;5092256;28;20044;-74
2023/12/22 09:13:47;;;;;;;17.27;2.55;;;;;;;;;;5091526;28;20533;-74
2023/12/22 09:16:16;;;;;;;20.05;2.65;;;;;;;;;;5091747;28;20385;-74
2023/12/22 09:18:44;;;;;;;15.35;1.95;;;;;;;;;;5092686;28;20048;-74
2023/12/22 09:21:10;;;;;;;21.08;2.70;;;;;;;;;;5091314;28;20466;-74
2023/12/22 09:23:36;;;;;;;14.40;1.88;;;;;;;;;;5080222;28;20366;-74
2023/12/22 09:26:04;;;;;;;13.95;2.03;;;;;;;;;;5079894;28;20052;-74
2023/12/22 09:28:30;;;;;;;12.60;1.80;;;;;;;;;;5074565;28;20041;-74
2023/12/22 09:30:56;;;;;;;12.43;1.50;;;;;;;;;;5091411;28;20055;-74
2023/12/22 09:33:22;;;;;;;8.43;1.40;;;;;;;;;;5091887;28;20044;-74
2023/12/22 09:35:49;;;;;;;8.07;1.33;;;;;;;;;;5092442;28;20044;-74
2023/12/22 09:38:15;;;;;;;12.85;1.48;;;;;;;;;;5092208;28;20048;-74
2023/12/22 09:40:41;;;;;;;11.25;1.52;;;;;;;;;;5083678;28;20393;-74
2023/12/22 09:43:09;;;;;;;9.48;1.33;;;;;;;;;;5092066;28;20054;-74
2023/12/22 09:45:35;;;;;;;8.90;1.30;;;;;;;;;;5083135;28;20048;-74
2023/12/22 09:48:01;;;;;;;7.45;1.15;;;;;;;;;;5092415;28;20055;-74
2023/12/22 09:50:28;;;;;;;7.90;1.25;;;;;;;;;;5089587;28;20048;-74
2023/12/22 09:52:54;;;;;;;10.70;1.40;;;;;;;;;;5092133;28;20044;-74
2023/12/22 09:55:23;;;;;;;8.85;1.20;;;;;;;;;;5089714;28;20047;-74
2023/12/22 09:57:50;;;;;;;10.52;1.40;;;;;;;;;;5070399;28;20044;-74
2023/12/22 10:00:17;;;;;;;7.95;1.17;;;;;;;;;;5091373;28;20050;-74
2023/12/22 10:02:45;;;;;;;9.00;1.48;;;;;;;;;;5092218;28;20093;-74
2023/12/22 10:05:13;;;;;;;8.00;1.50;;;;;;;;;;5048171;28;20127;-74
2023/12/22 10:07:39;;;;;;;11.05;1.58;;;;;;;;;;5091231;28;20101;-74
2023/12/22 10:10:06;;;;;;;9.15;1.90;;;;;;;;;;5091766;28;20315;-74
2023/12/22 10:12:33;;;;;;;11.10;1.67;;;;;;;;;;5088424;28;20105;-74
2023/12/22 10:15:00;;;;;;;10.40;1.85;;;;;;;;;;5080808;28;20420;-74
2023/12/22 10:17:27;;;;;;;10.55;1.90;;;;;;;;;;5083931;28;20117;-75
2023/12/22 10:19:53;;;;;;;13.70;1.60;;;;;;;;;;5089414;28;20112;-74
2023/12/22 10:22:21;;;;;;;14.15;1.80;;;;;;;;;;5090618;28;20532;-74
2023/12/22 10:24:47;;;;;;;10.73;1.63;;;;;;;;;;5066922;28;20115;-74
2023/12/22 10:27:14;;;;;;;12.30;1.77;;;;;;;;;;5087089;28;20048;-74
2023/12/22 10:29:40;;;;;;;14.45;2.13;;;;;;;;;;5079418;28;20091;-74
2023/12/22 10:32:08;;;;;;;7.75;1.50;;;;;;;;;;5075347;28;20049;-75
2023/12/22 10:34:35;;;;;;;12.45;1.60;;;;;;;;;;5075363;28;20052;-74
2023/12/22 10:37:01;;;;;;;11.25;1.63;;;;;;;;;;5057021;28;20220;-74
2023/12/22 10:39:29;;;;;;;13.80;1.80;;;;;;;;;;5076228;28;20071;-74
2023/12/22 10:41:55;;;;;;;13.65;2.08;;;;;;;;;;5075558;28;20044;-74
2023/12/22 10:44:24;;;;;;;11.98;1.95;;;;;;;;;;5075379;28;20549;-74
2023/12/22 10:46:50;;;;;;;14.70;2.40;;;;;;;;;;5075537;28;20064;-74
2023/12/22 10:49:16;;;;;;;16.33;2.30;;;;;;;;;;5090714;28;20050;-74
2023/12/22 10:51:42;;;;;;;13.35;2.15;;;;;;;;;;5092630;28;20086;-75
2023/12/22 10:54:09;;;;;;;12.05;2.05;;;;;;;;;;5082628;28;21394;-74
2023/12/22 10:56:35;;;;;;;10.80;1.92;;;;;;;;;;5084014;28;20119;-74
2023/12/22 10:59:06;;;;;;;14.77;2.63;;;;;;;;;;5087608;28;20069;-74
2023/12/22 11:01:38;;;;;;;13.55;2.60;;;;;;;;;;5084491;28;20108;-74
2023/12/22 11:04:05;;;;;;;13.25;1.88;;;;;;;;;;5092643;28;20056;-74
2023/12/22 11:06:34;;;;;;;16.77;2.33;;;;;;;;;;5072544;28;20056;-74
2023/12/22 11:09:01;;;;;;;15.15;2.33;;;;;;;;;;5094935;28;20052;-74
2023/12/22 11:11:40;;;;;;;15.20;2.05;;;;;;;;;;5094477;28;20071;-75
2023/12/22 11:14:06;;;;;;;15.63;2.63;;;;;;;;;;5080859;28;20048;-75
2023/12/22 11:16:33;;;;;;;14.80;2.20;;;;;;;;;;5089222;28;20361;-75
2023/12/22 11:19:00;;;;;;;12.93;1.80;;;;;;;;;;5088684;28;20048;-75
2023/12/22 11:21:26;;;;;;;20.55;2.55;;;;;;;;;;5076069;28;20158;-75
2023/12/22 11:23:53;;;;;;;20.45;2.33;;;;;;;;;;5055357;28;20040;-75
2023/12/22 11:26:20;;;;;;;16.00;2.60;;;;;;;;;;5092605;28;20044;-75
2023/12/22 11:28:47;;;;;;;14.15;2.35;;;;;;;;;;5076067;28;20047;-75
2023/12/22 11:31:13;;;;;;;19.58;2.50;;;;;;;;;;5087750;28;20093;-75
2023/12/22 11:33:47;;;;;;;12.85;2.15;;;;;;;;;;5085753;28;20427;-75
2023/12/22 11:36:13;;;;;;;15.70;2.30;;;;;;;;;;5082987;28;20056;-75
2023/12/22 11:38:43;;;;;;;15.93;2.20;;;;;;;;;;5093790;28;20118;-75
2023/12/22 11:41:15;;;;;;;15.82;2.33;;;;;;;;;;5089764;28;20044;-75
2023/12/22 11:43:41;;;;;;;15.40;2.20;;;;;;;;;;5089561;28;20498;-75
2023/12/22 11:46:09;;;;;;;15.63;2.42;;;;;;;;;;5089841;28;20043;-75
2023/12/22 11:48:35;;;;;;;14.55;2.45;;;;;;;;;;5093032;28;20055;-75
2023/12/22 11:51:02;;;;;;;16.42;2.13;;;;;;;;;;5093581;28;20052;-74
2023/12/22 11:53:34;;;;;;;16.83;2.17;;;;;;;;;;5092225;28;20048;-75
2023/12/22 11:56:04;;;;;;;15.00;2.33;;;;;;;;;;5083652;28;20119;-75
2023/12/22 11:58:36;;;;;;;18.37;2.70;;;;;;;;;;5087056;28;20040;-75
2023/12/22 12:01:06;;;;;;;18.65;1.90;;;;;;;;;;5075176;28;20310;-75
2023/12/22 12:03:32;;;;;;;14.30;2.50;;;;;;;;;;5087667;28;20494;-75
2023/12/22 12:06:14;;;;;;;17.63;2.25;;;;;;;;;;5089892;28;20048;-75
2023/12/22 12:08:40;;;;;;;;;;;;;;;;;;5081156;28;20127;-75
2023/12/22 12:11:06;;;;;;;14.27;2.10;;;;;;;;;;5093725;28;19963;-75
2023/12/22 12:13:36;;;;;;;14.13;2.08;;;;;;;;;;5093204;28;20048;-75
2023/12/22 12:16:04;;;;;;;11.75;2.10;;;;;;;;;;5092924;28;20056;-75
2023/12/22 12:18:30;;;;;;;14.25;2.05;;;;;;;;;;5089394;28;20055;-75
2023/12/22 12:20:56;;;;;;;15.00;2.13;;;;;;;;;;5081369;28;20055;-75
2023/12/22 12:23:26;;;;;;;12.63;1.70;;;;;;;;;;5073993;28;20040;-74
2023/12/22 12:25:53;;;;;;;11.38;1.98;;;;;;;;;;5093758;28;20399;-75
2023/12/22 12:28:25;;;;;;;13.13;1.88;;;;;;;;;;5093706;28;20044;-75
2023/12/22 12:30:57;;;;;;;13.82;2.03;;;;;;;;;;5086100;28;20098;-75
2023/12/22 12:33:24;;;;;;;12.63;1.90;;;;;;;;;;5073254;28;20041;-75
2023/12/22 12:35:50;;;;;;;16.17;2.10;;;;;;;;;;5092352;28;20054;-75
2023/12/22 12:38:18;;;;;;;15.98;2.10;;;;;;;;;;5093385;28;20169;-75
2023/12/22 12:40:46;;;;;;;19.27;2.10;;;;;;;;;;5088076;28;20059;-75
2023/12/22 12:43:12;;;;;;;17.88;2.38;;;;;;;;;;5088091;28;20361;-75
2023/12/22 12:45:38;;;;;;;15.68;1.85;;;;;;;;;;5085273;28;20048;-75
2023/12/22 12:48:04;;;;;;;16.90;2.03;;;;;;;;;;5086766;28;20123;-75
2023/12/22 12:50:31;;;;;;;18.13;2.40;;;;;;;;;;5093220;28;20047;-75
2023/12/22 12:52:57;;;;;;;17.27;2.50;;;;;;;;;;5074479;28;20079;-75
2023/12/22 12:55:24;;;;;;;16.73;2.42;;;;;;;;;;5092551;28;20047;-75
2023/12/22 12:57:54;;;;;;;14.85;2.35;;;;;;;;;;5093344;28;20044;-75
2023/12/22 13:00:27;;;;;;;11.85;1.90;;;;;;;;;;5092828;28;20056;-75
2023/12/22 13:02:57;;;;;;;12.90;2.58;;;;;;;;;;5055728;28;20044;-75
2023/12/22 13:05:23;;;;;;;13.02;2.17;;;;;;;;;;5072885;28;20482;-75
2023/12/22 13:07:49;;;;;;;13.00;1.85;;;;;;;;;;5072719;28;20481;-75
2023/12/22 13:10:25;;;;;;;17.17;2.00;;;;;;;;;;5079719;28;20040;-75
2023/12/22 13:12:54;;;;;;;18.92;2.05;;;;;;;;;;5089086;28;20041;-75
2023/12/22 13:15:20;;;;;;;17.08;2.40;;;;;;;;;;5085069;28;20052;-74
2023/12/22 13:17:46;;;;;;;10.07;2.03;;;;;;;;;;5093393;28;20055;-75
2023/12/22 13:20:13;;;;;;;23.05;2.33;;;;;;;;;;5092808;28;20092;-74
2023/12/22 13:22:39;;;;;;;19.58;2.30;;;;;;;;;;5093087;28;20385;-75
2023/12/22 13:25:05;;;;;;;14.63;1.60;;;;;;;;;;5092869;28;20084;-75
2023/12/22 13:27:31;;;;;;;13.63;1.90;;;;;;;;;;5092596;28;20044;-75
2023/12/22 13:29:57;;;;;;;13.35;1.58;;;;;;;;;;5081106;28;20049;-75
2023/12/22 13:32:24;;;;;;;16.60;1.80;;;;;;;;;;5072512;28;20044;-74
2023/12/22 13:34:51;;;;;;;11.60;1.65;;;;;;;;;;5073520;28;20079;-74
2023/12/22 13:37:17;;;;;;;13.82;1.58;;;;;;;;;;5075237;28;20545;-75
2023/12/22 13:39:43;;;;;;;10.55;1.30;;;;;;;;;;5092496;28;20048;-75
2023/12/22 13:42:16;;;;;;;11.00;1.67;;;;;;;;;;5092301;28;20040;-75
2023/12/22 13:44:49;;;;;;;15.68;2.30;;;;;;;;;;5085840;28;20126;-74
2023/12/22 13:47:18;;;;;;;13.50;2.33;;;;;;;;;;5087743;28;20040;-75
2023/12/22 13:49:44;;;;;;;17.40;1.88;;;;;;;;;;5072706;28;20044;-75
2023/12/22 13:52:27;;;;;;;12.48;1.90;;;;;;;;;;5092002;28;20123;-75
2023/12/22 13:54:56;;;;;;;15.43;2.08;;;;;;;;;;5092290;28;20051;-75
2023/12/22 13:57:22;;;;;;;16.60;2.30;;;;;;;;;;5095848;28;20052;-74
2023/12/22 13:59:48;;;;;;;17.38;2.35;;;;;;;;;;5096759;28;20048;-74
2023/12/22 14:02:15;;;;;;;15.05;2.10;;;;;;;;;;5084391;28;20056;-74
2023/12/22 14:04:41;;;;;;;15.40;2.00;;;;;;;;;;5076215;28;20313;-74
2023/12/22 14:07:07;;;;;;;17.15;2.72;;;;;;;;;;5076329;28;20090;-74
2023/12/22 14:09:33;;;;;;;19.73;2.50;;;;;;;;;;5093172;28;20040;-74
2023/12/22 14:12:00;;;;;;;14.38;2.30;;;;;;;;;;5096509;28;20165;-74
2023/12/22 14:14:26;;;;;;;16.15;2.45;;;;;;;;;;5095670;28;20051;-74
2023/12/22 14:16:52;;;;;;;14.88;2.45;;;;;;;;;;5094737;28;20059;-74
2023/12/22 14:19:18;;;;;;;16.02;2.30;;;;;;;;;;5096290;28;20059;-74
2023/12/22 14:21:44;;;;;;;12.05;2.10;;;;;;;;;;5096372;28;20097;-74
2023/12/22 14:24:10;;;;;;;9.73;1.52;;;;;;;;;;5096320;28;20444;-74
2023/12/22 14:26:52;;;;;;;17.35;2.28;;;;;;;;;;5096046;28;20401;-74
2023/12/22 14:29:18;;;;;;;14.15;2.30;;;;;;;;;;5090258;28;20052;-74